createdAt,value
2022-10-19T00:00:42.650Z,1.90
2022-10-19T00:01:45.548Z,2.10
2022-10-19T00:02:48.349Z,2.58
2022-10-19T00:03:53.986Z,2.20
2022-10-19T00:04:56.855Z,1.70
2022-10-19T00:05:59.974Z,1.87
2022-10-19T00:07:02.757Z,1.60
2022-10-19T00:08:06.409Z,1.80
2022-10-19T00:09:12.170Z,2.17
2022-10-19T00:10:14.889Z,1.98
2022-10-19T00:11:17.531Z,2.20
2022-10-19T00:12:20.133Z,2.00
2022-10-19T00:13:22.806Z,2.00
2022-10-19T00:14:26.375Z,2.03
2022-10-19T00:15:29.129Z,2.03
2022-10-19T00:16:34.983Z,1.52
2022-10-19T00:17:37.737Z,2.78
2022-10-19T00:18:43.569Z,2.30
2022-10-19T00:19:55.274Z,2.40
2022-10-19T00:21:09.140Z,1.65
2022-10-19T00:22:13.917Z,2.22
2022-10-19T00:23:17.095Z,1.73
2022-10-19T00:24:20.331Z,2.30
2022-10-19T00:25:23.133Z,2.20
2022-10-19T00:26:26.246Z,1.85
2022-10-19T00:27:28.975Z,1.80
2022-10-19T00:28:34.987Z,2.05
2022-10-19T00:29:39.026Z,2.10
2022-10-19T00:30:41.899Z,2.03
2022-10-19T00:31:44.781Z,2.00
2022-10-19T00:32:47.574Z,2.10
2022-10-19T00:33:50.673Z,2.12
2022-10-19T00:34:53.493Z,2.05
2022-10-19T00:35:56.332Z,2.30
2022-10-19T00:36:59.180Z,1.85
2022-10-19T00:38:02.052Z,2.17
2022-10-19T00:39:07.776Z,2.75
2022-10-19T00:40:10.892Z,1.77
2022-10-19T00:41:18.024Z,1.90
2022-10-19T00:42:20.932Z,2.40
2022-10-19T00:43:26.773Z,1.92
2022-10-19T00:44:29.660Z,2.08
2022-10-19T00:45:32.533Z,2.10
2022-10-19T00:46:38.410Z,1.98
2022-10-19T00:47:42.491Z,2.10
2022-10-19T00:48:45.862Z,2.40
2022-10-19T00:49:48.813Z,1.95
2022-10-19T00:50:54.498Z,2.10
2022-10-19T00:52:06.048Z,2.10
2022-10-19T00:53:09.020Z,1.90
2022-10-19T00:54:12.784Z,2.72
2022-10-19T00:55:15.653Z,1.98
2022-10-19T00:56:20.293Z,2.10
2022-10-19T00:57:23.493Z,2.17
2022-10-19T00:58:30.135Z,3.17
2022-10-19T00:59:34.060Z,2.10
2022-10-19T01:00:37.613Z,2.25
2022-10-19T01:01:41.093Z,1.83
2022-10-19T01:02:43.929Z,2.00
2022-10-19T01:03:47.223Z,2.20
2022-10-19T01:04:52.532Z,2.00
2022-10-19T01:05:56.012Z,1.83
2022-10-19T01:07:00.572Z,2.45
2022-10-19T01:08:07.353Z,2.22
2022-10-19T01:09:10.212Z,1.62
2022-10-19T01:10:13.530Z,2.40
2022-10-19T01:11:50.175Z,2.12
2022-10-19T01:13:15.016Z,1.52
2022-10-19T01:14:52.172Z,1.80
2022-10-19T01:16:17.914Z,2.10
2022-10-19T01:17:38.139Z,2.17
2022-10-19T01:18:50.173Z,1.85
2022-10-19T01:20:05.536Z,1.75
2022-10-19T01:21:22.493Z,1.75
2022-10-19T01:23:02.662Z,2.30
2022-10-19T01:24:23.858Z,1.73
2022-10-19T01:25:44.815Z,2.35
2022-10-19T01:27:43.375Z,1.70
2022-10-19T01:29:04.127Z,1.80
2022-10-19T01:30:27.219Z,1.87
2022-10-19T01:31:38.635Z,2.05
2022-10-19T01:32:55.890Z,2.33
2022-10-19T01:34:15.856Z,2.12
2022-10-19T01:35:39.491Z,1.87
2022-10-19T01:37:00.651Z,2.20
2022-10-19T01:38:14.853Z,2.40
2022-10-19T01:39:36.112Z,2.50
2022-10-19T01:40:52.306Z,2.33
2022-10-19T01:42:12.192Z,2.08
2022-10-19T01:43:24.167Z,2.62
2022-10-19T01:44:36.216Z,2.42
2022-10-19T01:45:41.253Z,2.40
2022-10-19T01:46:57.761Z,2.92
2022-10-19T01:48:15.921Z,2.30
2022-10-19T01:49:43.374Z,2.60
2022-10-19T01:50:48.792Z,2.33
2022-10-19T01:52:00.888Z,2.12
2022-10-19T01:53:06.830Z,2.12
2022-10-19T01:54:14.582Z,2.72
2022-10-19T01:55:19.621Z,2.47
2022-10-19T01:56:27.827Z,2.65
2022-10-19T01:57:43.117Z,3.05
2022-10-19T01:58:47.124Z,2.70
2022-10-19T01:59:50.704Z,2.85
2022-10-19T02:00:56.885Z,2.50
2022-10-19T02:02:00.726Z,2.72
2022-10-19T02:03:06.286Z,2.65
2022-10-19T02:04:11.848Z,2.58
2022-10-19T02:05:17.469Z,2.33
2022-10-19T02:06:21.250Z,2.50
2022-10-19T02:07:25.719Z,2.60
2022-10-19T02:08:38.255Z,2.95
2022-10-19T02:09:41.062Z,3.03
2022-10-19T02:10:45.523Z,2.75
2022-10-19T02:11:56.141Z,2.50
2022-10-19T02:13:03.050Z,2.92
2022-10-19T02:14:13.217Z,2.53
2022-10-19T02:15:20.296Z,2.60
2022-10-19T02:16:38.316Z,2.60
2022-10-19T02:17:47.534Z,2.22
2022-10-19T02:18:53.496Z,2.53
2022-10-19T02:19:57.419Z,2.03
2022-10-19T02:21:04.890Z,2.40
2022-10-19T02:22:08.693Z,2.95
2022-10-19T02:23:13.453Z,3.28
2022-10-19T02:24:16.211Z,2.55
2022-10-19T02:25:19.573Z,3.60
2022-10-19T02:26:22.773Z,3.47
2022-10-19T02:27:26.004Z,2.95
2022-10-19T02:28:31.261Z,2.80
2022-10-19T02:29:36.250Z,2.67
2022-10-19T02:30:39.212Z,2.90
2022-10-19T02:31:42.538Z,2.53
2022-10-19T02:32:45.381Z,2.75
2022-10-19T02:33:48.345Z,2.92
2022-10-19T02:34:51.260Z,2.95
2022-10-19T02:35:54.314Z,3.00
2022-10-19T02:36:57.931Z,2.47
2022-10-19T02:38:02.571Z,2.90
2022-10-19T02:39:07.902Z,2.55
2022-10-19T02:40:11.817Z,3.30
2022-10-19T02:41:22.377Z,2.58
2022-10-19T02:42:35.901Z,2.78
2022-10-19T02:43:41.330Z,2.62
2022-10-19T02:44:58.372Z,3.47
2022-10-19T02:46:06.451Z,3.40
2022-10-19T02:47:22.661Z,3.72
2022-10-19T02:48:30.732Z,2.30
2022-10-19T02:49:36.373Z,3.03
2022-10-19T02:50:44.505Z,2.85
2022-10-19T02:52:06.535Z,3.05
2022-10-19T02:53:09.418Z,3.22
2022-10-19T02:54:12.415Z,3.83
2022-10-19T02:55:15.270Z,3.75
2022-10-19T02:56:18.255Z,3.00
2022-10-19T02:57:24.320Z,2.92
2022-10-19T02:58:27.226Z,3.10
2022-10-19T02:59:30.373Z,2.72
2022-10-19T03:00:33.824Z,2.60
2022-10-19T03:01:36.659Z,3.22
2022-10-19T03:02:39.494Z,3.65
2022-10-19T03:03:42.180Z,3.30
2022-10-19T03:04:48.828Z,2.95
2022-10-19T03:05:55.704Z,2.70
2022-10-19T03:06:58.662Z,2.85
2022-10-19T03:08:01.895Z,2.70
2022-10-19T03:09:04.895Z,2.78
2022-10-19T03:10:08.060Z,2.55
2022-10-19T03:11:11.305Z,2.70
2022-10-19T03:12:14.658Z,2.60
2022-10-19T03:13:17.475Z,2.55
2022-10-19T03:14:20.278Z,2.92
2022-10-19T03:15:25.052Z,2.87
2022-10-19T03:16:28.016Z,3.10
2022-10-19T03:17:31.182Z,2.42
2022-10-19T03:18:36.629Z,2.67
2022-10-19T03:19:39.706Z,3.20
2022-10-19T03:20:42.535Z,2.78
2022-10-19T03:21:45.651Z,3.70
2022-10-19T03:22:48.515Z,2.53
2022-10-19T03:23:51.806Z,2.83
2022-10-19T03:24:58.214Z,2.58
2022-10-19T03:26:01.273Z,2.75
2022-10-19T03:27:04.251Z,3.22
2022-10-19T03:28:07.117Z,2.62
2022-10-19T03:29:09.920Z,3.12
2022-10-19T03:30:12.927Z,2.37
2022-10-19T03:31:15.682Z,3.05
2022-10-19T03:32:18.565Z,2.60
2022-10-19T03:33:21.506Z,2.85
2022-10-19T03:34:24.390Z,2.72
2022-10-19T03:35:27.742Z,3.50
2022-10-19T03:36:36.052Z,2.62
2022-10-19T03:37:38.887Z,2.95
2022-10-19T03:38:42.879Z,2.40
2022-10-19T03:39:45.748Z,2.53
2022-10-19T03:40:48.576Z,2.50
2022-10-19T03:41:51.435Z,2.45
2022-10-19T03:42:54.135Z,3.28
2022-10-19T03:43:57.858Z,2.97
2022-10-19T03:45:00.703Z,3.03
2022-10-19T03:46:03.854Z,2.72
2022-10-19T03:47:06.620Z,2.62
2022-10-19T03:48:10.700Z,2.33
2022-10-19T03:49:14.026Z,2.78
2022-10-19T03:50:17.495Z,2.53
2022-10-19T03:51:25.379Z,2.10
2022-10-19T03:52:28.173Z,2.92
2022-10-19T03:53:33.164Z,2.45
2022-10-19T03:54:36.291Z,2.22
2022-10-19T03:56:42.636Z,2.03
2022-10-19T03:57:45.384Z,2.87
2022-10-19T03:58:50.173Z,2.30
2022-10-19T03:59:53.076Z,2.37
2022-10-19T04:00:55.889Z,2.58
2022-10-19T04:01:58.663Z,2.75
2022-10-19T04:03:01.580Z,2.03
2022-10-19T04:04:11.011Z,2.10
2022-10-19T04:05:14.006Z,2.17
2022-10-19T04:06:21.294Z,2.42
2022-10-19T04:07:25.103Z,2.67
2022-10-19T04:08:30.718Z,2.30
2022-10-19T04:09:33.859Z,2.90
2022-10-19T04:10:36.642Z,2.50
2022-10-19T04:11:40.146Z,2.12
2022-10-19T04:12:42.869Z,3.28
2022-10-19T04:13:53.302Z,2.42
2022-10-19T04:14:57.574Z,2.25
2022-10-19T04:16:01.280Z,3.03
2022-10-19T04:17:04.583Z,2.08
2022-10-19T04:18:07.517Z,2.42
2022-10-19T04:19:15.267Z,3.08
2022-10-19T04:20:21.371Z,2.78
2022-10-19T04:21:26.748Z,2.75
2022-10-19T04:22:29.526Z,3.03
2022-10-19T04:23:35.287Z,2.75
2022-10-19T04:24:37.998Z,2.85
2022-10-19T04:25:40.929Z,3.47
2022-10-19T04:26:49.725Z,3.03
2022-10-19T04:27:56.267Z,3.53
2022-10-19T04:29:01.504Z,3.17
2022-10-19T04:30:05.306Z,2.50
2022-10-19T04:31:08.613Z,3.17
2022-10-19T04:32:11.631Z,2.53
2022-10-19T04:33:14.525Z,2.35
2022-10-19T04:34:17.840Z,2.72
2022-10-19T04:35:20.632Z,2.80
2022-10-19T04:36:28.738Z,2.30
2022-10-19T04:37:31.853Z,3.33
2022-10-19T04:38:37.412Z,3.45
2022-10-19T04:39:41.447Z,3.25
2022-10-19T04:40:44.167Z,2.45
2022-10-19T04:41:47.012Z,2.90
2022-10-19T04:42:49.850Z,3.15
2022-10-19T04:43:58.472Z,2.58
2022-10-19T04:45:01.248Z,2.58
2022-10-19T04:46:15.429Z,2.42
2022-10-19T04:47:18.198Z,2.33
2022-10-19T04:48:23.054Z,2.00
2022-10-19T04:49:27.414Z,2.78
2022-10-19T04:50:30.168Z,2.72
2022-10-19T04:51:34.438Z,2.60
2022-10-19T04:52:37.178Z,2.80
2022-10-19T04:53:44.423Z,3.37
2022-10-19T04:54:47.407Z,2.50
2022-10-19T04:55:50.138Z,2.70
2022-10-19T04:56:54.102Z,2.60
2022-10-19T04:57:56.937Z,2.67
2022-10-19T04:59:01.320Z,2.40
2022-10-19T05:00:05.021Z,2.55
2022-10-19T05:01:17.253Z,2.70
2022-10-19T05:02:20.341Z,2.42
2022-10-19T05:03:23.056Z,2.40
2022-10-19T05:04:25.789Z,2.58
2022-10-19T05:05:28.514Z,3.05
2022-10-19T05:06:32.252Z,2.70
2022-10-19T05:07:35.392Z,3.03
2022-10-19T05:08:39.798Z,2.78
2022-10-19T05:09:42.645Z,2.30
2022-10-19T05:10:47.623Z,2.67
2022-10-19T05:11:51.464Z,2.70
2022-10-19T05:12:54.747Z,2.30
2022-10-19T05:13:57.696Z,2.05
2022-10-19T05:15:00.463Z,2.28
2022-10-19T05:16:06.739Z,2.30
2022-10-19T05:17:09.553Z,2.15
2022-10-19T05:18:14.760Z,2.25
2022-10-19T05:19:18.568Z,2.50
2022-10-19T05:20:21.643Z,2.03
2022-10-19T05:21:24.903Z,1.87
2022-10-19T05:22:27.913Z,2.42
2022-10-19T05:24:38.586Z,2.47
2022-10-19T05:25:41.403Z,2.80
2022-10-19T05:26:44.906Z,2.62
2022-10-19T05:27:52.469Z,1.92
2022-10-19T05:29:04.737Z,2.15
2022-10-19T05:30:08.861Z,2.17
2022-10-19T05:31:19.055Z,1.85
2022-10-19T05:32:21.906Z,2.00
2022-10-19T05:33:24.751Z,2.15
2022-10-19T05:34:27.510Z,2.53
2022-10-19T05:35:30.339Z,1.95
2022-10-19T05:36:39.560Z,3.45
2022-10-19T05:37:42.393Z,1.83
2022-10-19T05:38:48.277Z,2.33
2022-10-19T05:39:51.116Z,2.28
2022-10-19T05:40:53.944Z,2.15
2022-10-19T05:41:56.837Z,2.92
2022-10-19T05:42:59.743Z,1.83
2022-10-19T05:44:04.173Z,1.75
2022-10-19T05:45:07.537Z,2.05
2022-10-19T05:46:13.668Z,2.17
2022-10-19T05:47:16.881Z,1.90
2022-10-19T05:48:20.541Z,3.00
2022-10-19T05:49:23.638Z,1.70
2022-10-19T05:50:26.563Z,2.50
2022-10-19T05:51:29.694Z,1.73
2022-10-19T05:52:32.444Z,1.87
2022-10-19T05:53:35.903Z,2.50
2022-10-19T05:54:38.793Z,2.72
2022-10-19T05:55:41.557Z,1.70
2022-10-19T05:56:45.150Z,2.60
2022-10-19T05:57:47.959Z,2.62
2022-10-19T05:58:53.514Z,2.12
2022-10-19T05:59:58.610Z,2.47
2022-10-19T06:01:02.507Z,2.55
2022-10-19T06:02:05.440Z,1.90
2022-10-19T06:03:08.407Z,1.98
2022-10-19T06:04:14.194Z,2.60
2022-10-19T06:05:17.174Z,2.60
2022-10-19T06:06:20.429Z,2.12
2022-10-19T06:07:23.478Z,1.80
2022-10-19T06:08:27.221Z,1.83
2022-10-19T06:09:36.033Z,2.10
2022-10-19T06:10:38.941Z,2.60
2022-10-19T06:11:42.810Z,2.50
2022-10-19T06:12:45.607Z,1.77
2022-10-19T06:13:50.830Z,1.80
2022-10-19T06:14:53.535Z,2.22
2022-10-19T06:15:56.295Z,2.17
2022-10-19T06:16:59.289Z,2.17
2022-10-19T06:18:04.395Z,2.40
2022-10-19T06:19:08.389Z,2.35
2022-10-19T06:20:11.638Z,1.80
2022-10-19T06:21:20.212Z,1.98
2022-10-19T06:22:23.011Z,1.87
2022-10-19T06:23:25.860Z,2.10
2022-10-19T06:24:28.698Z,2.00
2022-10-19T06:25:32.509Z,2.05
2022-10-19T06:26:36.052Z,1.92
2022-10-19T06:27:39.313Z,2.33
2022-10-19T06:28:43.790Z,2.90
2022-10-19T06:29:46.753Z,2.75
2022-10-19T06:30:49.879Z,2.15
2022-10-19T06:31:54.464Z,2.50
2022-10-19T06:32:59.361Z,1.42
2022-10-19T06:34:02.405Z,3.10
2022-10-19T06:35:05.651Z,1.90
2022-10-19T06:36:18.950Z,1.70
2022-10-19T06:37:21.572Z,1.98
2022-10-19T06:38:25.423Z,1.90
2022-10-19T06:39:28.173Z,1.65
2022-10-19T06:40:34.556Z,2.53
2022-10-19T06:41:38.357Z,1.87
2022-10-19T06:42:41.178Z,2.42
2022-10-19T06:43:44.311Z,2.03
2022-10-19T06:44:47.090Z,1.83
2022-10-19T06:45:49.783Z,2.00
2022-10-19T06:46:52.986Z,1.95
2022-10-19T06:47:55.809Z,1.73
2022-10-19T06:49:01.611Z,1.75
2022-10-19T06:50:09.468Z,1.52
2022-10-19T06:51:13.850Z,2.28
2022-10-19T06:52:16.573Z,1.58
2022-10-19T06:53:19.466Z,1.50
2022-10-19T06:54:22.310Z,1.85
2022-10-19T06:55:25.849Z,1.75
2022-10-19T06:56:28.786Z,1.70
2022-10-19T06:57:35.877Z,2.10
2022-10-19T06:58:41.065Z,1.73
2022-10-19T06:59:43.852Z,1.67
2022-10-19T07:00:47.906Z,1.60
2022-10-19T07:01:50.763Z,1.50
2022-10-19T07:02:53.632Z,1.70
2022-10-19T07:03:56.633Z,1.50
2022-10-19T07:05:03.239Z,1.60
2022-10-19T07:06:12.891Z,1.80
2022-10-19T07:07:15.725Z,1.60
2022-10-19T07:08:26.914Z,1.85
2022-10-19T07:09:30.017Z,1.67
2022-10-19T07:10:32.837Z,1.58
2022-10-19T07:11:35.664Z,1.58
2022-10-19T07:12:38.577Z,1.60
2022-10-19T07:13:41.296Z,2.10
2022-10-19T07:14:44.073Z,1.42
2022-10-19T07:15:47.483Z,1.55
2022-10-19T07:16:50.974Z,1.92
2022-10-19T07:17:53.849Z,1.52
2022-10-19T07:18:56.652Z,1.40
2022-10-19T07:19:59.401Z,1.30
2022-10-19T07:21:04.372Z,1.77
2022-10-19T07:22:07.111Z,1.55
2022-10-19T07:23:10.015Z,1.75
2022-10-19T07:24:12.707Z,1.52
2022-10-19T07:25:15.567Z,1.60
2022-10-19T07:26:26.790Z,1.73
2022-10-19T07:27:31.870Z,1.70
2022-10-19T07:29:44.367Z,1.55
2022-10-19T07:30:47.255Z,1.60
2022-10-19T07:31:50.319Z,1.77
2022-10-19T07:32:53.158Z,1.40
2022-10-19T07:33:58.111Z,1.77
2022-10-19T07:35:00.862Z,2.00
2022-10-19T07:36:07.362Z,1.67
2022-10-19T07:37:10.215Z,1.67
2022-10-19T07:38:13.302Z,1.62
2022-10-19T07:39:19.497Z,1.70
2022-10-19T07:40:22.792Z,1.87
2022-10-19T07:41:26.936Z,2.08
2022-10-19T07:42:33.067Z,2.15
2022-10-19T07:43:36.491Z,1.83
2022-10-19T07:44:39.471Z,1.80
2022-10-19T07:45:42.281Z,1.77
2022-10-19T07:46:45.655Z,1.70
2022-10-19T07:47:48.446Z,1.50
2022-10-19T07:48:52.346Z,1.90
2022-10-19T07:49:55.267Z,1.90
2022-10-19T07:50:58.351Z,1.77
2022-10-19T07:52:01.032Z,1.85
2022-10-19T07:53:05.515Z,1.70
2022-10-19T07:54:08.504Z,1.67
2022-10-19T07:55:11.425Z,1.77
2022-10-19T07:56:23.577Z,1.80
2022-10-19T07:57:27.309Z,1.25
2022-10-19T07:58:30.199Z,1.50
2022-10-19T07:59:34.666Z,1.70
2022-10-19T08:00:37.617Z,1.70
2022-10-19T08:01:41.897Z,1.73
2022-10-19T08:03:00.034Z,2.08
2022-10-19T08:05:33.426Z,1.37
2022-10-19T08:06:37.724Z,1.42
2022-10-19T08:07:40.536Z,1.70
2022-10-19T08:08:49.145Z,1.40
2022-10-19T08:09:53.818Z,1.73
2022-10-19T08:10:57.575Z,1.80
2022-10-19T08:12:00.584Z,1.50
2022-10-19T08:13:03.323Z,1.73
2022-10-19T08:14:06.208Z,1.52
2022-10-19T08:15:09.348Z,1.75
2022-10-19T08:16:33.086Z,1.50
2022-10-19T08:17:37.183Z,1.70
2022-10-19T08:18:45.905Z,1.30
2022-10-19T08:19:48.712Z,1.70
2022-10-19T08:20:51.425Z,2.03
2022-10-19T08:21:54.349Z,1.70
2022-10-19T08:23:07.407Z,1.55
2022-10-19T08:24:15.520Z,1.58
2022-10-19T08:25:18.408Z,1.48
2022-10-19T08:26:21.689Z,1.80
2022-10-19T08:27:24.548Z,1.70
2022-10-19T08:28:29.137Z,1.50
2022-10-19T08:29:32.127Z,1.75
2022-10-19T08:30:36.214Z,1.40
2022-10-19T08:31:39.340Z,1.60
2022-10-19T08:32:42.140Z,1.50
2022-10-19T08:33:45.346Z,1.58
2022-10-19T08:34:48.170Z,1.48
2022-10-19T08:35:51.121Z,1.60
2022-10-19T08:36:53.874Z,1.50
2022-10-19T08:37:58.656Z,1.35
2022-10-19T08:39:07.716Z,1.60
2022-10-19T08:40:26.019Z,1.40
2022-10-19T08:41:41.200Z,1.70
2022-10-19T08:42:54.675Z,1.52
2022-10-19T08:44:22.364Z,1.25
2022-10-19T08:45:44.880Z,1.50
2022-10-19T08:46:50.658Z,1.20
2022-10-19T08:48:06.011Z,1.37
2022-10-19T08:49:16.316Z,1.48
2022-10-19T08:50:24.297Z,1.45
2022-10-19T08:51:28.970Z,1.62
2022-10-19T08:52:35.881Z,1.50
2022-10-19T08:53:58.605Z,1.65
2022-10-19T08:55:14.015Z,1.20
2022-10-19T08:57:05.794Z,1.95
2022-10-19T08:58:46.320Z,1.55
2022-10-19T09:00:10.203Z,1.30
2022-10-19T09:01:28.420Z,1.75
2022-10-19T09:02:49.362Z,1.42
2022-10-19T09:04:02.480Z,1.30
2022-10-19T09:05:28.878Z,1.58
2022-10-19T09:06:57.393Z,1.40
2022-10-19T09:08:01.168Z,1.55
2022-10-19T09:09:06.461Z,1.50
2022-10-19T09:10:16.034Z,1.60
2022-10-19T09:11:26.118Z,1.73
2022-10-19T09:12:41.497Z,1.35
2022-10-19T09:14:04.359Z,1.45
2022-10-19T09:15:14.349Z,1.20
2022-10-19T09:16:19.965Z,1.52
2022-10-19T09:17:22.813Z,1.70
2022-10-19T09:18:30.299Z,1.50
2022-10-19T09:19:33.156Z,1.50
2022-10-19T09:20:40.664Z,1.40
2022-10-19T09:21:56.197Z,1.60
2022-10-19T09:23:21.015Z,1.37
2022-10-19T09:24:39.194Z,1.30
2022-10-19T09:25:42.072Z,1.42
2022-10-19T09:26:53.720Z,1.25
2022-10-19T09:28:36.669Z,1.37
2022-10-19T09:29:48.344Z,1.30
2022-10-19T09:30:56.920Z,1.48
2022-10-19T09:32:04.029Z,1.35
2022-10-19T09:33:16.380Z,1.55
2022-10-19T09:34:46.619Z,1.67
2022-10-19T09:35:50.632Z,1.33
2022-10-19T09:36:59.107Z,1.30
2022-10-19T09:38:02.513Z,1.23
2022-10-19T09:39:05.755Z,1.30
2022-10-19T09:40:17.362Z,1.33
2022-10-19T09:41:22.869Z,1.27
2022-10-19T09:42:30.636Z,1.48
2022-10-19T09:43:34.375Z,1.30
2022-10-19T09:44:37.098Z,1.48
2022-10-19T09:46:01.093Z,1.40
2022-10-19T09:47:31.235Z,1.27
2022-10-19T09:48:55.623Z,1.10
2022-10-19T09:50:24.647Z,1.42
2022-10-19T09:51:40.714Z,1.40
2022-10-19T09:52:46.145Z,1.50
2022-10-19T09:53:54.774Z,1.37
2022-10-19T09:55:04.593Z,1.33
2022-10-19T09:56:12.439Z,1.35
2022-10-19T09:57:22.168Z,1.50
2022-10-19T09:58:33.040Z,1.10
2022-10-19T09:59:36.979Z,1.00
2022-10-19T10:00:48.385Z,1.10
2022-10-19T10:02:07.665Z,0.98
2022-10-19T10:03:29.690Z,0.90
2022-10-19T10:04:32.616Z,1.12
2022-10-19T10:05:41.368Z,1.20
2022-10-19T10:06:46.933Z,0.90
2022-10-19T10:07:55.457Z,0.95
2022-10-19T10:08:59.284Z,1.10
2022-10-19T10:10:08.877Z,0.90
2022-10-19T10:11:14.836Z,1.20
2022-10-19T10:12:17.695Z,0.82
2022-10-19T10:13:25.081Z,0.90
2022-10-19T10:14:40.546Z,1.00
2022-10-19T10:15:48.482Z,0.93
2022-10-19T10:17:27.817Z,0.80
2022-10-19T10:18:38.523Z,1.00
2022-10-19T10:19:59.679Z,0.98
2022-10-19T10:21:12.441Z,0.93
2022-10-19T10:22:27.989Z,0.85
2022-10-19T10:23:36.589Z,1.02
2022-10-19T10:24:52.232Z,0.90
2022-10-19T10:25:57.497Z,0.93
2022-10-19T10:27:03.278Z,0.85
2022-10-19T10:28:23.740Z,1.10
2022-10-19T10:29:28.877Z,1.02
2022-10-19T10:30:36.808Z,0.90
2022-10-19T10:31:42.676Z,1.10
2022-10-19T10:32:51.857Z,0.85
2022-10-19T10:34:10.971Z,0.95
2022-10-19T10:35:37.495Z,1.05
2022-10-19T10:36:40.592Z,1.10
2022-10-19T10:37:46.368Z,1.00
2022-10-19T10:39:07.548Z,0.90
2022-10-19T10:40:30.262Z,0.98
2022-10-19T10:41:40.261Z,1.05
2022-10-19T10:42:46.016Z,0.95
2022-10-19T10:44:07.124Z,1.02
2022-10-19T10:45:20.800Z,0.73
2022-10-19T10:46:29.881Z,1.10
2022-10-19T10:47:33.178Z,0.70
2022-10-19T10:48:43.228Z,1.02
2022-10-19T10:49:57.314Z,0.90
2022-10-19T10:51:01.692Z,0.68
2022-10-19T10:52:16.401Z,0.60
2022-10-19T10:53:40.405Z,0.65
2022-10-19T10:54:59.525Z,0.65
2022-10-19T10:56:04.522Z,0.60
2022-10-19T10:57:18.764Z,0.70
2022-10-19T10:58:48.212Z,1.10
2022-10-19T10:59:53.602Z,0.60
2022-10-19T11:00:57.430Z,0.70
2022-10-19T11:02:10.691Z,0.65
2022-10-19T11:03:20.610Z,0.60
2022-10-19T11:04:30.241Z,0.90
2022-10-19T11:05:41.142Z,0.70
2022-10-19T11:06:55.274Z,0.70
2022-10-19T11:08:19.102Z,0.60
2022-10-19T11:09:39.602Z,0.82
2022-10-19T11:10:59.303Z,0.88
2022-10-19T11:12:05.846Z,0.80
2022-10-19T11:13:50.147Z,0.50
2022-10-19T11:15:20.057Z,0.70
2022-10-19T11:16:34.028Z,0.68
2022-10-19T11:17:40.335Z,0.60
2022-10-19T11:18:55.280Z,0.73
2022-10-19T11:19:58.925Z,0.73
2022-10-19T11:21:34.574Z,0.75
2022-10-19T11:23:00.410Z,0.95
2022-10-19T11:24:35.838Z,0.88
2022-10-19T11:25:44.616Z,0.80
2022-10-19T11:27:16.611Z,0.90
2022-10-19T11:28:44.124Z,0.88
2022-10-19T11:30:18.836Z,0.65
2022-10-19T11:31:37.421Z,1.00
2022-10-19T11:32:50.234Z,0.80
2022-10-19T11:34:11.073Z,1.00
2022-10-19T11:35:44.893Z,0.80
2022-10-19T11:37:06.008Z,0.70
2022-10-19T11:38:25.122Z,0.80
2022-10-19T11:39:36.917Z,0.93
2022-10-19T11:41:19.521Z,0.80
2022-10-19T11:44:29.992Z,1.00
2022-10-19T11:45:35.448Z,0.90
2022-10-19T11:46:56.429Z,0.68
2022-10-19T11:48:20.631Z,1.00
2022-10-19T11:49:45.435Z,0.65
2022-10-19T11:51:17.279Z,0.80
2022-10-19T11:52:46.603Z,0.80
2022-10-19T11:54:10.017Z,0.77
2022-10-19T11:55:38.325Z,0.85
2022-10-19T11:57:02.179Z,0.82
2022-10-19T11:58:35.265Z,0.70
2022-10-19T12:00:08.172Z,0.52
2022-10-19T12:01:59.531Z,0.85
2022-10-19T12:03:23.588Z,0.60
2022-10-19T12:04:51.149Z,0.90
2022-10-19T12:06:08.418Z,0.80
2022-10-19T12:07:23.076Z,1.10
2022-10-19T12:08:37.679Z,0.80
2022-10-19T12:09:53.474Z,0.82
2022-10-19T12:11:23.688Z,0.70
2022-10-19T12:12:32.502Z,0.80
2022-10-19T12:13:49.430Z,1.00
2022-10-19T12:15:01.597Z,0.90
2022-10-19T12:16:06.010Z,0.68
2022-10-19T12:17:20.398Z,0.80
2022-10-19T12:18:49.229Z,1.50
2022-10-19T12:19:56.776Z,1.00
2022-10-19T12:21:03.494Z,0.80
2022-10-19T12:22:13.976Z,0.80
2022-10-19T12:24:30.962Z,1.10
2022-10-19T12:25:36.260Z,0.80
2022-10-19T12:26:41.636Z,0.90
2022-10-19T12:27:50.310Z,0.70
2022-10-19T12:29:01.128Z,1.20
2022-10-19T12:30:30.346Z,0.80
2022-10-19T12:31:35.787Z,0.70
2022-10-19T12:32:54.252Z,0.60
2022-10-19T12:34:09.594Z,0.88
2022-10-19T12:35:31.452Z,0.95
2022-10-19T12:36:47.105Z,0.90
2022-10-19T12:38:04.137Z,0.70
2022-10-19T12:39:21.090Z,1.00
2022-10-19T12:40:45.198Z,0.82
2022-10-19T12:41:52.798Z,0.90
2022-10-19T12:43:24.458Z,1.12
2022-10-19T12:44:36.458Z,0.90
2022-10-19T12:45:52.508Z,0.75
2022-10-19T12:47:10.569Z,1.33
2022-10-19T12:48:14.559Z,0.93
2022-10-19T12:49:26.906Z,0.80
2022-10-19T12:50:54.286Z,0.75
2022-10-19T12:52:01.963Z,0.60
2022-10-19T12:53:05.579Z,0.90
2022-10-19T12:54:09.911Z,0.80
2022-10-19T12:55:15.634Z,0.70
2022-10-19T12:56:20.512Z,1.02
2022-10-19T12:57:30.511Z,0.80
2022-10-19T13:00:24.814Z,1.10
2022-10-19T13:01:33.477Z,0.90
2022-10-19T13:02:39.411Z,0.70
2022-10-19T13:03:45.306Z,1.00
2022-10-19T13:04:54.377Z,0.95
2022-10-19T13:06:16.434Z,1.02
2022-10-19T13:07:19.623Z,0.95
2022-10-19T13:08:32.846Z,0.80
2022-10-19T13:09:39.742Z,0.98
2022-10-19T13:11:06.448Z,0.90
2022-10-19T13:12:16.182Z,0.85
2022-10-19T13:13:52.481Z,1.08
2022-10-19T13:14:58.721Z,1.02
2022-10-19T13:16:02.777Z,0.77
2022-10-19T13:17:05.626Z,0.90
2022-10-19T13:18:44.654Z,0.88
2022-10-19T13:19:47.539Z,0.80
2022-10-19T13:20:53.413Z,0.98
2022-10-19T13:22:02.456Z,0.90
2022-10-19T13:23:05.170Z,0.82
2022-10-19T13:24:26.130Z,1.08
2022-10-19T13:25:39.499Z,0.93
2022-10-19T13:26:42.358Z,0.90
2022-10-19T13:27:46.965Z,1.00
2022-10-19T13:28:55.818Z,1.00
2022-10-19T13:29:58.725Z,1.00
2022-10-19T13:31:07.137Z,1.05
2022-10-19T13:32:45.517Z,1.02
2022-10-19T13:33:50.302Z,1.05
2022-10-19T13:34:53.574Z,1.00
2022-10-19T13:35:59.137Z,1.02
2022-10-19T13:37:04.009Z,0.90
2022-10-19T13:38:10.827Z,0.90
2022-10-19T13:39:15.960Z,1.20
2022-10-19T13:40:24.515Z,1.00
2022-10-19T13:41:37.001Z,1.17
2022-10-19T13:42:40.357Z,1.20
2022-10-19T13:44:02.150Z,1.20
2022-10-19T13:45:05.448Z,1.12
2022-10-19T13:46:08.112Z,1.20
2022-10-19T13:49:19.676Z,1.23
2022-10-19T13:50:47.114Z,1.15
2022-10-19T13:52:07.673Z,1.12
2022-10-19T13:53:39.065Z,1.08
2022-10-19T13:55:12.967Z,1.30
2022-10-19T13:56:49.659Z,1.67
2022-10-19T13:58:02.875Z,1.20
2022-10-19T14:00:04.539Z,0.95
2022-10-19T14:02:55.335Z,1.12
2022-10-19T14:04:12.750Z,1.05
2022-10-19T14:05:42.849Z,1.95
2022-10-19T14:07:02.036Z,2.08
2022-10-19T14:08:19.995Z,1.42
2022-10-19T14:09:48.329Z,1.33
2022-10-19T14:11:14.178Z,1.05
2022-10-19T14:12:16.871Z,1.45
2022-10-19T14:13:22.543Z,1.80
2022-10-19T14:14:25.605Z,1.20
2022-10-19T14:15:31.348Z,1.37
2022-10-19T14:16:34.684Z,1.30
2022-10-19T14:17:42.709Z,1.40
2022-10-19T14:18:55.943Z,1.17
2022-10-19T14:20:00.267Z,1.40
2022-10-19T14:21:06.933Z,1.20
2022-10-19T14:22:26.827Z,1.45
2022-10-19T14:23:33.575Z,1.30
2022-10-19T14:24:37.123Z,1.10
2022-10-19T14:25:39.896Z,1.40
2022-10-19T14:26:42.768Z,1.10
2022-10-19T14:27:54.483Z,1.23
2022-10-19T14:28:59.974Z,1.20
2022-10-19T14:30:04.165Z,0.90
2022-10-19T14:31:17.448Z,1.80
2022-10-19T14:32:28.983Z,1.40
2022-10-19T14:33:39.435Z,1.20
2022-10-19T14:34:44.647Z,1.27
2022-10-19T14:35:50.947Z,1.45
2022-10-19T14:36:53.926Z,1.40
2022-10-19T14:37:57.505Z,1.45
2022-10-19T14:39:01.006Z,1.37
2022-10-19T14:40:26.527Z,1.20
2022-10-19T14:44:00.169Z,1.37
2022-10-19T14:45:03.754Z,1.30
2022-10-19T14:46:06.599Z,1.37
2022-10-19T14:47:21.347Z,0.90
2022-10-19T14:48:24.602Z,1.00
2022-10-19T14:49:27.474Z,1.30
2022-10-19T14:50:32.944Z,1.42
2022-10-19T14:51:38.839Z,1.50
2022-10-19T14:52:41.964Z,1.40
2022-10-19T14:53:56.667Z,1.40
2022-10-19T14:55:05.319Z,1.40
2022-10-19T14:56:11.857Z,1.25
2022-10-19T14:57:24.987Z,1.00
2022-10-19T14:58:44.274Z,1.00
2022-10-19T14:59:53.114Z,1.40
2022-10-19T15:00:56.597Z,1.00
2022-10-19T15:02:01.871Z,1.02
2022-10-19T15:03:08.875Z,1.20
2022-10-19T15:04:11.866Z,1.23
2022-10-19T15:05:26.986Z,1.15
2022-10-19T15:06:35.998Z,1.30
2022-10-19T15:07:41.692Z,1.17
2022-10-19T15:08:50.259Z,1.30
2022-10-19T15:09:59.999Z,1.35
2022-10-19T15:11:06.843Z,1.30
2022-10-19T15:12:16.280Z,1.20
2022-10-19T15:13:31.355Z,1.27
2022-10-19T15:14:34.377Z,1.12
2022-10-19T15:15:40.866Z,1.10
2022-10-19T15:16:51.409Z,1.62
2022-10-19T15:19:04.688Z,1.52
2022-10-19T15:20:24.815Z,1.08
2022-10-19T15:21:30.352Z,1.20
2022-10-19T15:22:34.476Z,1.10
2022-10-19T15:23:46.824Z,1.30
2022-10-19T15:25:10.827Z,1.30
2022-10-19T15:26:24.530Z,1.10
2022-10-19T15:27:36.197Z,1.33
2022-10-19T15:28:41.900Z,1.50
2022-10-19T15:29:59.481Z,1.40
2022-10-19T15:31:14.543Z,1.67
2022-10-19T15:32:24.932Z,1.20
2022-10-19T15:33:28.720Z,1.00
2022-10-19T15:34:31.802Z,1.70